Eldridge, IA

6:25 PM CDT on August 28, 2014 (GMT -0500)
Clinton Municipal | Change Station
CLOSE
Current Station
Airport
Location: Clinton,
Elevation: 709 ft
Nearby Weather Stations

Elev 709 ft 41.83 °N, 90.33 °W | Updated 10 minutes ago

Mostly Cloudy
Mostly Cloudy
70 °F
Feels Like 70 °F
N
13
Wind Variable Wind from ESE

Today
High -- | Low -- °F
--% Chance of Precip.
Yesterday
High -- | Low -- °F
Precip. -- in
6:24 AM 7:41 PM
Waxing Crescent, 10% visible
Pressure 30.01 in
Visibility 10.0 miles
Clouds Few 1300 ft
Few 4600 ft
Mostly Cloudy 6000 ft
Dew Point 66 °F
Humidity 88%
Rainfall 0.72 in
Snow Depth Not available.
UV 1 out of 12
Pollen 5.20 out of 12
Air Quality Not available.
Flu Activity Not available.
METAR KCWI 282315Z AUTO 11011KT 10SM FEW013 FEW046 BKN060 21/19 A3001 RMK AO1 P0001

More Conditions Fewer Conditions

Pressure 30.01 in
Visibility 10.0 miles
Clouds Few 1300 ft
Few 4600 ft
Mostly Cloudy 6000 ft
Dew Point 66 °F
Humidity 88%
Rainfall 0.72 in
Snow Depth Not available.
UV 1 out of 12
Pollen 5.20 out of 12
Air Quality Not available.
Flu Activity Not available.
METAR KCWI 282315Z AUTO 11011KT 10SM FEW013 FEW046 BKN060 21/19 A3001 RMK AO1 P0001

More Conditions Fewer Conditions

10-Day Weather Forecast

Almanac

Astronomy

Aug. 28, 2014 Rise Set
Actual Time 6:24 AM CDT 7:41 PM CDT
Civil Twilight 5:55 AM CDT 8:10 PM CDT
Nautical Twilight 5:20 AM CDT 8:45 PM CDT
Astronomical Twilight 4:44 AM CDT 9:21 PM CDT
Moon 9:19 AM CDT 9:02 PM CDT
Length of Visible Light 14h 15m
Length of Day
13h 17m
Tomorrow will be 2m 39s shorter.
Waxing Crescent, 10% of the Moon is Illuminated
Today
Waxing Crescent
Sep 2
First Quarter
Sep 8
Full
Sep 15
Last Quarter
Sep 24
New

Today's Extremes

State Highs State Lows

Community

WunderPhotos

Upload Photos

1,748,104 photos uploaded!

Nearby

Snow Depth

Station Depth Elevation
No new snow has been reported.

Earthquake Activity

City Distance Mag. Time & Date
No recent earthquake activity has been reported nearby.
Minimum magnitude displayed is 2.5.

Coastal Water Temperatures

Place Temperature
No Stations Reporting

Nearby Weather Stations